sensor_id;sensor_type;location;lat;lon;timestamp;temperature;humidity
29855;DHT22;16733;48.738;9.106;2023-04-29T00:01:52;12.70;99.90
29855;DHT22;16733;48.738;9.106;2023-04-29T00:04:23;12.70;99.90
29855;DHT22;16733;48.738;9.106;2023-04-29T00:06:49;12.70;99.90
29855;DHT22;16733;48.738;9.106;2023-04-29T00:09:14;12.70;99.90
29855;DHT22;16733;48.738;9.106;2023-04-29T00:11:40;12.70;99.90
29855;DHT22;16733;48.738;9.106;2023-04-29T00:14:06;12.70;99.90
29855;DHT22;16733;48.738;9.106;2023-04-29T00:16:31;12.70;99.90
29855;DHT22;16733;48.738;9.106;2023-04-29T00:18:57;12.70;99.90
29855;DHT22;16733;48.738;9.106;2023-04-29T00:21:24;12.70;99.90
29855;DHT22;16733;48.738;9.106;2023-04-29T00:23:52;12.70;99.90
29855;DHT22;16733;48.738;9.106;2023-04-29T00:26:17;12.80;99.90
29855;DHT22;16733;48.738;9.106;2023-04-29T00:28:43;12.80;99.90
29855;DHT22;16733;48.738;9.106;2023-04-29T00:31:09;12.80;99.90
29855;DHT22;16733;48.738;9.106;2023-04-29T00:33:35;12.80;99.90
29855;DHT22;16733;48.738;9.106;2023-04-29T00:36:00;12.80;99.90
29855;DHT22;16733;48.738;9.106;2023-04-29T00:38:26;12.80;99.90
29855;DHT22;16733;48.738;9.106;2023-04-29T00:40:52;12.80;99.90
29855;DHT22;16733;48.738;9.106;2023-04-29T00:43:18;12.80;99.90
29855;DHT22;16733;48.738;9.106;2023-04-29T00:45:44;12.80;99.90
29855;DHT22;16733;48.738;9.106;2023-04-29T00:48:11;12.80;99.90
29855;DHT22;16733;48.738;9.106;2023-04-29T00:50:37;12.80;99.90
29855;DHT22;16733;48.738;9.106;2023-04-29T00:53:03;12.70;99.90
29855;DHT22;16733;48.738;9.106;2023-04-29T00:55:29;12.80;99.90
29855;DHT22;16733;48.738;9.106;2023-04-29T00:57:56;12.70;99.90
29855;DHT22;16733;48.738;9.106;2023-04-29T01:00:21;12.70;99.90
29855;DHT22;16733;48.738;9.106;2023-04-29T01:02:49;12.70;99.90
29855;DHT22;16733;48.738;9.106;2023-04-29T01:05:15;12.70;99.90
29855;DHT22;16733;48.738;9.106;2023-04-29T01:07:51;12.70;99.90
29855;DHT22;16733;48.738;9.106;2023-04-29T01:10:28;12.70;99.90
29855;DHT22;16733;48.738;9.106;2023-04-29T01:13:23;12.70;99.90
29855;DHT22;16733;48.738;9.106;2023-04-29T01:18:25;12.60;99.90
29855;DHT22;16733;48.738;9.106;2023-04-29T01:20:52;12.60;99.90
29855;DHT22;16733;48.738;9.106;2023-04-29T01:23:18;12.60;99.90
29855;DHT22;16733;48.738;9.106;2023-04-29T01:25:44;12.60;99.90
29855;DHT22;16733;48.738;9.106;2023-04-29T01:28:45;12.50;99.90
29855;DHT22;16733;48.738;9.106;2023-04-29T01:31:38;12.50;99.90
29855;DHT22;16733;48.738;9.106;2023-04-29T01:34:36;12.50;99.90
29855;DHT22;16733;48.738;9.106;2023-04-29T01:37:13;12.50;99.90
29855;DHT22;16733;48.738;9.106;2023-04-29T01:45:16;12.50;99.90
29855;DHT22;16733;48.738;9.106;2023-04-29T01:47:44;12.50;99.90
29855;DHT22;16733;48.738;9.106;2023-04-29T01:50:11;12.40;99.90
29855;DHT22;16733;48.738;9.106;2023-04-29T01:52:36;12.40;99.90
29855;DHT22;16733;48.738;9.106;2023-04-29T01:55:03;12.40;99.90
29855;DHT22;16733;48.738;9.106;2023-04-29T01:57:28;12.40;99.90
29855;DHT22;16733;48.738;9.106;2023-04-29T01:59:54;12.50;99.90
29855;DHT22;16733;48.738;9.106;2023-04-29T02:02:20;12.50;99.90
29855;DHT22;16733;48.738;9.106;2023-04-29T02:04:48;12.50;99.90
29855;DHT22;16733;48.738;9.106;2023-04-29T02:07:15;12.60;99.90
29855;DHT22;16733;48.738;9.106;2023-04-29T02:09:41;12.60;99.90
29855;DHT22;16733;48.738;9.106;2023-04-29T02:12:06;12.60;99.90
29855;DHT22;16733;48.738;9.106;2023-04-29T02:14:32;12.60;99.90
29855;DHT22;16733;48.738;9.106;2023-04-29T02:16:59;12.60;99.90
29855;DHT22;16733;48.738;9.106;2023-04-29T02:19:24;12.60;99.90
29855;DHT22;16733;48.738;9.106;2023-04-29T02:21:50;12.70;99.90
29855;DHT22;16733;48.738;9.106;2023-04-29T02:24:16;12.70;99.90
29855;DHT22;16733;48.738;9.106;2023-04-29T02:26:41;12.70;99.90
29855;DHT22;16733;48.738;9.106;2023-04-29T02:29:07;12.60;99.90
29855;DHT22;16733;48.738;9.106;2023-04-29T02:31:33;12.60;99.90
29855;DHT22;16733;48.738;9.106;2023-04-29T02:33:58;12.50;99.90
29855;DHT22;16733;48.738;9.106;2023-04-29T02:36:25;12.50;99.90
29855;DHT22;16733;48.738;9.106;2023-04-29T02:38:51;12.40;99.90
29855;DHT22;16733;48.738;9.106;2023-04-29T02:41:19;12.40;99.90
29855;DHT22;16733;48.738;9.106;2023-04-29T02:43:45;12.40;99.90
29855;DHT22;16733;48.738;9.106;2023-04-29T02:46:11;12.30;99.90
29855;DHT22;16733;48.738;9.106;2023-04-29T02:48:37;12.20;99.90
29855;DHT22;16733;48.738;9.106;2023-04-29T02:51:02;12.20;99.90
29855;DHT22;16733;48.738;9.106;2023-04-29T02:53:28;12.20;99.90
29855;DHT22;16733;48.738;9.106;2023-04-29T02:55:54;12.20;99.90
29855;DHT22;16733;48.738;9.106;2023-04-29T02:58:20;12.10;99.90
29855;DHT22;16733;48.738;9.106;2023-04-29T03:00:45;12.10;99.90
29855;DHT22;16733;48.738;9.106;2023-04-29T03:03:11;12.00;99.90
29855;DHT22;16733;48.738;9.106;2023-04-29T03:05:37;12.00;99.90
29855;DHT22;16733;48.738;9.106;2023-04-29T03:08:02;12.00;99.90
29855;DHT22;16733;48.738;9.106;2023-04-29T03:10:29;12.00;99.90
29855;DHT22;16733;48.738;9.106;2023-04-29T03:12:55;12.00;99.90
29855;DHT22;16733;48.738;9.106;2023-04-29T03:15:20;12.00;99.90
29855;DHT22;16733;48.738;9.106;2023-04-29T03:17:46;12.00;99.90
29855;DHT22;16733;48.738;9.106;2023-04-29T03:20:12;12.00;99.90
29855;DHT22;16733;48.738;9.106;2023-04-29T03:22:37;12.00;99.90
29855;DHT22;16733;48.738;9.106;2023-04-29T03:25:03;12.00;99.90
29855;DHT22;16733;48.738;9.106;2023-04-29T03:27:29;12.00;99.90
29855;DHT22;16733;48.738;9.106;2023-04-29T03:29:55;12.10;99.90
29855;DHT22;16733;48.738;9.106;2023-04-29T03:32:22;12.10;99.90
29855;DHT22;16733;48.738;9.106;2023-04-29T03:34:48;12.10;99.90
29855;DHT22;16733;48.738;9.106;2023-04-29T03:37:14;12.10;99.90
29855;DHT22;16733;48.738;9.106;2023-04-29T03:39:41;12.10;99.90
29855;DHT22;16733;48.738;9.106;2023-04-29T03:42:06;12.10;99.90
29855;DHT22;16733;48.738;9.106;2023-04-29T03:44:32;12.10;99.90
29855;DHT22;16733;48.738;9.106;2023-04-29T03:46:58;12.10;99.90
29855;DHT22;16733;48.738;9.106;2023-04-29T03:49:24;12.10;99.90
29855;DHT22;16733;48.738;9.106;2023-04-29T03:51:50;12.10;99.90
29855;DHT22;16733;48.738;9.106;2023-04-29T03:54:15;12.10;99.90
29855;DHT22;16733;48.738;9.106;2023-04-29T03:56:41;12.10;99.90
29855;DHT22;16733;48.738;9.106;2023-04-29T03:59:07;12.10;99.90
29855;DHT22;16733;48.738;9.106;2023-04-29T04:01:33;12.10;99.90
29855;DHT22;16733;48.738;9.106;2023-04-29T04:03:59;12.10;99.90
29855;DHT22;16733;48.738;9.106;2023-04-29T04:06:25;12.10;99.90
29855;DHT22;16733;48.738;9.106;2023-04-29T04:08:50;12.00;99.90
29855;DHT22;16733;48.738;9.106;2023-04-29T04:11:16;12.00;99.90
29855;DHT22;16733;48.738;9.106;2023-04-29T04:13:42;12.00;99.90
29855;DHT22;16733;48.738;9.106;2023-04-29T04:16:09;12.00;99.90
29855;DHT22;16733;48.738;9.106;2023-04-29T04:18:36;12.00;99.90
29855;DHT22;16733;48.738;9.106;2023-04-29T04:21:11;12.00;99.90
29855;DHT22;16733;48.738;9.106;2023-04-29T04:23:37;11.90;99.90
29855;DHT22;16733;48.738;9.106;2023-04-29T04:26:05;11.90;99.90
29855;DHT22;16733;48.738;9.106;2023-04-29T04:28:31;11.80;99.90
29855;DHT22;16733;48.738;9.106;2023-04-29T04:30:57;11.80;99.90
29855;DHT22;16733;48.738;9.106;2023-04-29T04:33:23;11.80;99.90
29855;DHT22;16733;48.738;9.106;2023-04-29T04:35:49;11.80;99.90
29855;DHT22;16733;48.738;9.106;2023-04-29T04:38:15;11.70;99.90
29855;DHT22;16733;48.738;9.106;2023-04-29T04:40:41;11.70;99.90
29855;DHT22;16733;48.738;9.106;2023-04-29T04:43:07;11.60;99.90
29855;DHT22;16733;48.738;9.106;2023-04-29T04:45:32;11.60;99.90
29855;DHT22;16733;48.738;9.106;2023-04-29T04:47:58;11.60;99.90
29855;DHT22;16733;48.738;9.106;2023-04-29T04:50:26;11.60;99.90
29855;DHT22;16733;48.738;9.106;2023-04-29T04:52:54;11.60;99.90
29855;DHT22;16733;48.738;9.106;2023-04-29T04:55:19;11.60;99.90
29855;DHT22;16733;48.738;9.106;2023-04-29T04:57:45;11.60;99.90
29855;DHT22;16733;48.738;9.106;2023-04-29T05:00:11;11.60;99.90
29855;DHT22;16733;48.738;9.106;2023-04-29T05:02:37;11.60;99.90
29855;DHT22;16733;48.738;9.106;2023-04-29T05:05:03;11.60;99.90
29855;DHT22;16733;48.738;9.106;2023-04-29T05:07:28;11.70;99.90
29855;DHT22;16733;48.738;9.106;2023-04-29T05:09:54;11.70;99.90
29855;DHT22;16733;48.738;9.106;2023-04-29T05:12:19;11.70;99.90
29855;DHT22;16733;48.738;9.106;2023-04-29T05:14:45;11.70;99.90
29855;DHT22;16733;48.738;9.106;2023-04-29T05:17:11;11.70;99.90
29855;DHT22;16733;48.738;9.106;2023-04-29T05:19:36;11.80;99.90
29855;DHT22;16733;48.738;9.106;2023-04-29T05:22:02;11.80;99.90
29855;DHT22;16733;48.738;9.106;2023-04-29T05:24:27;11.80;99.90
29855;DHT22;16733;48.738;9.106;2023-04-29T05:26:54;11.80;99.90
29855;DHT22;16733;48.738;9.106;2023-04-29T05:29:19;11.90;99.90
29855;DHT22;16733;48.738;9.106;2023-04-29T05:31:45;11.90;99.90
29855;DHT22;16733;48.738;9.106;2023-04-29T05:34:10;11.90;99.90
29855;DHT22;16733;48.738;9.106;2023-04-29T05:36:36;12.10;99.90
29855;DHT22;16733;48.738;9.106;2023-04-29T05:39:02;12.20;99.90
29855;DHT22;16733;48.738;9.106;2023-04-29T05:41:27;12.20;99.90
29855;DHT22;16733;48.738;9.106;2023-04-29T05:43:53;12.20;99.90
29855;DHT22;16733;48.738;9.106;2023-04-29T05:46:19;12.30;99.90
29855;DHT22;16733;48.738;9.106;2023-04-29T05:48:45;12.40;99.90
29855;DHT22;16733;48.738;9.106;2023-04-29T05:51:11;12.40;99.90
29855;DHT22;16733;48.738;9.106;2023-04-29T05:53:37;12.50;99.90
29855;DHT22;16733;48.738;9.106;2023-04-29T05:56:04;12.60;99.90
29855;DHT22;16733;48.738;9.106;2023-04-29T05:58:33;12.60;99.90
29855;DHT22;16733;48.738;9.106;2023-04-29T06:00:59;12.70;99.90
29855;DHT22;16733;48.738;9.106;2023-04-29T06:03:27;12.70;99.90
29855;DHT22;16733;48.738;9.106;2023-04-29T06:05:54;12.70;99.90
29855;DHT22;16733;48.738;9.106;2023-04-29T06:08:20;12.80;99.90
29855;DHT22;16733;48.738;9.106;2023-04-29T06:10:46;12.90;99.90
29855;DHT22;16733;48.738;9.106;2023-04-29T06:13:12;12.90;99.90
29855;DHT22;16733;48.738;9.106;2023-04-29T06:15:37;13.00;99.90
29855;DHT22;16733;48.738;9.106;2023-04-29T06:18:03;13.00;99.90
29855;DHT22;16733;48.738;9.106;2023-04-29T06:20:29;13.10;99.90
29855;DHT22;16733;48.738;9.106;2023-04-29T06:22:54;13.10;99.90
29855;DHT22;16733;48.738;9.106;2023-04-29T06:25:20;13.10;99.90
29855;DHT22;16733;48.738;9.106;2023-04-29T06:27:46;13.00;99.90
29855;DHT22;16733;48.738;9.106;2023-04-29T06:30:11;13.10;99.90
29855;DHT22;16733;48.738;9.106;2023-04-29T06:32:40;13.10;99.90
29855;DHT22;16733;48.738;9.106;2023-04-29T06:35:06;13.10;99.90
29855;DHT22;16733;48.738;9.106;2023-04-29T06:37:32;13.10;99.90
29855;DHT22;16733;48.738;9.106;2023-04-29T06:39:57;13.20;99.90
29855;DHT22;16733;48.738;9.106;2023-04-29T06:42:23;13.20;99.90
29855;DHT22;16733;48.738;9.106;2023-04-29T06:44:49;13.20;99.90
29855;DHT22;16733;48.738;9.106;2023-04-29T06:47:14;13.20;99.90
29855;DHT22;16733;48.738;9.106;2023-04-29T06:49:40;13.20;99.90
29855;DHT22;16733;48.738;9.106;2023-04-29T06:52:08;13.20;99.90
29855;DHT22;16733;48.738;9.106;2023-04-29T06:54:33;13.20;99.90
29855;DHT22;16733;48.738;9.106;2023-04-29T06:56:59;13.30;99.90
29855;DHT22;16733;48.738;9.106;2023-04-29T06:59:25;13.30;99.90
29855;DHT22;16733;48.738;9.106;2023-04-29T07:01:50;13.30;99.90
29855;DHT22;16733;48.738;9.106;2023-04-29T07:04:16;13.30;99.90
29855;DHT22;16733;48.738;9.106;2023-04-29T07:06:42;13.30;99.90
29855;DHT22;16733;48.738;9.106;2023-04-29T07:09:11;13.30;99.90
29855;DHT22;16733;48.738;9.106;2023-04-29T07:11:38;13.30;99.90
29855;DHT22;16733;48.738;9.106;2023-04-29T07:14:04;13.30;99.90
29855;DHT22;16733;48.738;9.106;2023-04-29T07:16:30;13.40;99.90
29855;DHT22;16733;48.738;9.106;2023-04-29T07:18:55;13.40;99.90
29855;DHT22;16733;48.738;9.106;2023-04-29T07:21:21;13.30;99.90
29855;DHT22;16733;48.738;9.106;2023-04-29T07:23:46;13.30;99.90
29855;DHT22;16733;48.738;9.106;2023-04-29T07:26:15;13.30;99.90
29855;DHT22;16733;48.738;9.106;2023-04-29T07:28:41;13.40;99.90
29855;DHT22;16733;48.738;9.106;2023-04-29T07:31:07;13.50;99.90
29855;DHT22;16733;48.738;9.106;2023-04-29T07:33:33;13.50;99.90
29855;DHT22;16733;48.738;9.106;2023-04-29T07:35:59;13.50;99.90
29855;DHT22;16733;48.738;9.106;2023-04-29T07:38:25;13.50;99.90
29855;DHT22;16733;48.738;9.106;2023-04-29T07:40:50;13.50;99.90
29855;DHT22;16733;48.738;9.106;2023-04-29T07:43:16;13.50;99.90
29855;DHT22;16733;48.738;9.106;2023-04-29T07:45:42;13.50;99.90
29855;DHT22;16733;48.738;9.106;2023-04-29T07:48:07;13.60;99.90
29855;DHT22;16733;48.738;9.106;2023-04-29T07:50:36;13.70;99.90
29855;DHT22;16733;48.738;9.106;2023-04-29T07:53:02;13.70;99.90
29855;DHT22;16733;48.738;9.106;2023-04-29T07:55:28;13.80;99.90
29855;DHT22;16733;48.738;9.106;2023-04-29T07:57:57;13.80;99.90
29855;DHT22;16733;48.738;9.106;2023-04-29T08:00:23;13.90;99.90
29855;DHT22;16733;48.738;9.106;2023-04-29T08:02:50;13.90;99.90
29855;DHT22;16733;48.738;9.106;2023-04-29T08:05:16;14.00;99.90
29855;DHT22;16733;48.738;9.106;2023-04-29T08:07:42;14.00;99.90
29855;DHT22;16733;48.738;9.106;2023-04-29T08:10:08;14.00;99.90
29855;DHT22;16733;48.738;9.106;2023-04-29T08:12:34;14.10;99.90
29855;DHT22;16733;48.738;9.106;2023-04-29T08:15:00;14.20;99.90
29855;DHT22;16733;48.738;9.106;2023-04-29T08:17:25;14.20;99.90
29855;DHT22;16733;48.738;9.106;2023-04-29T08:19:51;14.20;99.90
29855;DHT22;16733;48.738;9.106;2023-04-29T08:22:16;14.30;99.90
29855;DHT22;16733;48.738;9.106;2023-04-29T08:24:42;14.30;99.90
29855;DHT22;16733;48.738;9.106;2023-04-29T08:27:09;14.30;99.90
29855;DHT22;16733;48.738;9.106;2023-04-29T08:29:35;14.40;99.90
29855;DHT22;16733;48.738;9.106;2023-04-29T08:32:01;14.40;99.90
29855;DHT22;16733;48.738;9.106;2023-04-29T08:34:28;14.40;99.90
29855;DHT22;16733;48.738;9.106;2023-04-29T08:36:53;14.40;99.90
29855;DHT22;16733;48.738;9.106;2023-04-29T08:39:19;14.50;99.90
29855;DHT22;16733;48.738;9.106;2023-04-29T08:41:45;14.40;99.90
29855;DHT22;16733;48.738;9.106;2023-04-29T08:44:15;14.40;99.90
29855;DHT22;16733;48.738;9.106;2023-04-29T08:46:44;14.40;99.90
29855;DHT22;16733;48.738;9.106;2023-04-29T08:49:11;14.40;99.90
29855;DHT22;16733;48.738;9.106;2023-04-29T08:51:37;14.40;99.90
29855;DHT22;16733;48.738;9.106;2023-04-29T08:54:03;14.40;99.90
29855;DHT22;16733;48.738;9.106;2023-04-29T08:56:30;14.50;99.90
29855;DHT22;16733;48.738;9.106;2023-04-29T08:58:56;14.40;99.90
29855;DHT22;16733;48.738;9.106;2023-04-29T09:01:26;14.40;99.90
29855;DHT22;16733;48.738;9.106;2023-04-29T09:03:55;14.40;99.90
29855;DHT22;16733;48.738;9.106;2023-04-29T09:06:25;14.30;99.90
29855;DHT22;16733;48.738;9.106;2023-04-29T09:08:51;14.20;99.90
29855;DHT22;16733;48.738;9.106;2023-04-29T09:11:17;14.20;99.90
29855;DHT22;16733;48.738;9.106;2023-04-29T09:13:44;14.20;99.90
29855;DHT22;16733;48.738;9.106;2023-04-29T09:16:10;14.20;99.90
29855;DHT22;16733;48.738;9.106;2023-04-29T09:18:44;14.20;99.90
29855;DHT22;16733;48.738;9.106;2023-04-29T09:21:24;14.20;99.90
29855;DHT22;16733;48.738;9.106;2023-04-29T09:23:52;14.30;99.90
29855;DHT22;16733;48.738;9.106;2023-04-29T09:26:19;14.40;99.90
29855;DHT22;16733;48.738;9.106;2023-04-29T09:28:45;14.50;99.90
29855;DHT22;16733;48.738;9.106;2023-04-29T09:31:12;14.50;99.90
29855;DHT22;16733;48.738;9.106;2023-04-29T09:33:51;14.50;99.90
29855;DHT22;16733;48.738;9.106;2023-04-29T09:36:36;14.50;99.90
29855;DHT22;16733;48.738;9.106;2023-04-29T09:39:06;14.60;99.90
29855;DHT22;16733;48.738;9.106;2023-04-29T09:41:58;14.60;99.90
29855;DHT22;16733;48.738;9.106;2023-04-29T09:44:28;14.50;99.90
29855;DHT22;16733;48.738;9.106;2023-04-29T09:46:59;14.50;99.90
29855;DHT22;16733;48.738;9.106;2023-04-29T09:49:29;14.50;99.90
29855;DHT22;16733;48.738;9.106;2023-04-29T09:51:57;14.60;99.90
29855;DHT22;16733;48.738;9.106;2023-04-29T09:54:24;14.60;99.90
29855;DHT22;16733;48.738;9.106;2023-04-29T09:56:52;14.70;99.90
29855;DHT22;16733;48.738;9.106;2023-04-29T09:59:18;14.80;99.90
29855;DHT22;16733;48.738;9.106;2023-04-29T10:01:49;14.90;99.90
29855;DHT22;16733;48.738;9.106;2023-04-29T10:04:17;15.00;99.90
29855;DHT22;16733;48.738;9.106;2023-04-29T10:06:44;14.90;99.90
29855;DHT22;16733;48.738;9.106;2023-04-29T10:09:16;14.90;99.90
29855;DHT22;16733;48.738;9.106;2023-04-29T10:11:44;14.80;99.90
29855;DHT22;16733;48.738;9.106;2023-04-29T10:14:16;14.90;99.90
29855;DHT22;16733;48.738;9.106;2023-04-29T10:19:26;15.20;99.90
29855;DHT22;16733;48.738;9.106;2023-04-29T10:21:57;15.40;99.90
29855;DHT22;16733;48.738;9.106;2023-04-29T10:24:25;15.50;99.90
29855;DHT22;16733;48.738;9.106;2023-04-29T10:26:52;15.50;99.90
29855;DHT22;16733;48.738;9.106;2023-04-29T10:29:21;15.50;99.90
29855;DHT22;16733;48.738;9.106;2023-04-29T10:31:48;15.50;99.90
29855;DHT22;16733;48.738;9.106;2023-04-29T10:34:16;15.60;99.90
29855;DHT22;16733;48.738;9.106;2023-04-29T10:36:42;15.70;99.90
29855;DHT22;16733;48.738;9.106;2023-04-29T10:39:15;15.80;99.90
29855;DHT22;16733;48.738;9.106;2023-04-29T10:41:44;15.90;99.90
29855;DHT22;16733;48.738;9.106;2023-04-29T10:44:14;15.90;99.90
29855;DHT22;16733;48.738;9.106;2023-04-29T10:46:40;15.90;99.90
29855;DHT22;16733;48.738;9.106;2023-04-29T10:49:06;15.90;99.90
29855;DHT22;16733;48.738;9.106;2023-04-29T10:51:41;16.00;99.90
29855;DHT22;16733;48.738;9.106;2023-04-29T10:54:15;16.20;99.90
29855;DHT22;16733;48.738;9.106;2023-04-29T10:56:43;16.30;99.90
29855;DHT22;16733;48.738;9.106;2023-04-29T10:59:13;16.20;99.90
29855;DHT22;16733;48.738;9.106;2023-04-29T11:01:44;16.20;99.90
29855;DHT22;16733;48.738;9.106;2023-04-29T11:04:11;16.10;99.90
29855;DHT22;16733;48.738;9.106;2023-04-29T11:12:03;16.00;99.90
29855;DHT22;16733;48.738;9.106;2023-04-29T11:17:16;16.00;99.90
29855;DHT22;16733;48.738;9.106;2023-04-29T11:19:44;16.00;99.90
29855;DHT22;16733;48.738;9.106;2023-04-29T11:24:55;16.10;99.90
29855;DHT22;16733;48.738;9.106;2023-04-29T11:27:23;16.10;99.90
29855;DHT22;16733;48.738;9.106;2023-04-29T11:29:53;16.00;99.90
29855;DHT22;16733;48.738;9.106;2023-04-29T11:32:30;16.10;99.90
29855;DHT22;16733;48.738;9.106;2023-04-29T11:35:15;16.10;99.90
29855;DHT22;16733;48.738;9.106;2023-04-29T11:37:42;16.10;99.90
29855;DHT22;16733;48.738;9.106;2023-04-29T11:40:10;16.20;99.90
29855;DHT22;16733;48.738;9.106;2023-04-29T11:42:43;16.30;99.90
29855;DHT22;16733;48.738;9.106;2023-04-29T11:45:10;16.40;99.90
29855;DHT22;16733;48.738;9.106;2023-04-29T11:47:36;16.40;99.90
29855;DHT22;16733;48.738;9.106;2023-04-29T11:50:07;16.40;99.90
29855;DHT22;16733;48.738;9.106;2023-04-29T11:52:35;16.40;99.90
29855;DHT22;16733;48.738;9.106;2023-04-29T11:55:02;16.40;99.90
29855;DHT22;16733;48.738;9.106;2023-04-29T11:57:28;16.50;99.90
29855;DHT22;16733;48.738;9.106;2023-04-29T11:59:54;16.60;99.90
29855;DHT22;16733;48.738;9.106;2023-04-29T12:02:22;16.70;99.90
29855;DHT22;16733;48.738;9.106;2023-04-29T12:04:48;16.70;99.90
29855;DHT22;16733;48.738;9.106;2023-04-29T12:07:17;16.80;99.90
29855;DHT22;16733;48.738;9.106;2023-04-29T12:09:45;16.90;99.90
29855;DHT22;16733;48.738;9.106;2023-04-29T12:12:13;16.90;99.90
29855;DHT22;16733;48.738;9.106;2023-04-29T12:14:39;16.80;99.90
29855;DHT22;16733;48.738;9.106;2023-04-29T12:17:06;16.90;99.90
29855;DHT22;16733;48.738;9.106;2023-04-29T12:19:32;16.90;99.90
29855;DHT22;16733;48.738;9.106;2023-04-29T12:21:59;16.90;99.90
29855;DHT22;16733;48.738;9.106;2023-04-29T12:24:25;16.80;99.90
29855;DHT22;16733;48.738;9.106;2023-04-29T12:26:51;16.80;99.90
29855;DHT22;16733;48.738;9.106;2023-04-29T12:29:21;16.60;99.90
29855;DHT22;16733;48.738;9.106;2023-04-29T12:31:48;16.40;99.90
29855;DHT22;16733;48.738;9.106;2023-04-29T12:34:13;16.30;99.90
29855;DHT22;16733;48.738;9.106;2023-04-29T12:36:43;16.20;99.90
29855;DHT22;16733;48.738;9.106;2023-04-29T12:39:09;16.10;99.90
29855;DHT22;16733;48.738;9.106;2023-04-29T12:41:39;16.00;99.90
29855;DHT22;16733;48.738;9.106;2023-04-29T12:44:06;16.10;99.90
29855;DHT22;16733;48.738;9.106;2023-04-29T12:46:39;16.20;99.90
29855;DHT22;16733;48.738;9.106;2023-04-29T12:49:06;16.10;99.90
29855;DHT22;16733;48.738;9.106;2023-04-29T12:51:35;15.80;99.90
29855;DHT22;16733;48.738;9.106;2023-04-29T12:54:03;15.80;99.90
29855;DHT22;16733;48.738;9.106;2023-04-29T12:56:32;15.90;99.90
29855;DHT22;16733;48.738;9.106;2023-04-29T12:59:07;16.00;99.90
29855;DHT22;16733;48.738;9.106;2023-04-29T13:01:37;16.00;99.90
29855;DHT22;16733;48.738;9.106;2023-04-29T13:04:03;15.90;99.90
29855;DHT22;16733;48.738;9.106;2023-04-29T13:06:31;15.90;99.90
29855;DHT22;16733;48.738;9.106;2023-04-29T13:08:57;15.80;99.90
29855;DHT22;16733;48.738;9.106;2023-04-29T13:11:22;15.90;99.90
29855;DHT22;16733;48.738;9.106;2023-04-29T13:13:48;15.90;99.90
29855;DHT22;16733;48.738;9.106;2023-04-29T13:16:14;15.80;99.90
29855;DHT22;16733;48.738;9.106;2023-04-29T13:18:39;15.90;99.90
29855;DHT22;16733;48.738;9.106;2023-04-29T13:21:06;15.90;99.90
29855;DHT22;16733;48.738;9.106;2023-04-29T13:23:31;15.90;99.90
29855;DHT22;16733;48.738;9.106;2023-04-29T13:25:57;15.90;99.90
29855;DHT22;16733;48.738;9.106;2023-04-29T13:28:22;15.80;99.90
29855;DHT22;16733;48.738;9.106;2023-04-29T13:30:49;15.90;99.90
29855;DHT22;16733;48.738;9.106;2023-04-29T13:33:15;15.90;99.90
29855;DHT22;16733;48.738;9.106;2023-04-29T13:35:40;15.80;99.90
29855;DHT22;16733;48.738;9.106;2023-04-29T13:38:07;15.90;99.90
29855;DHT22;16733;48.738;9.106;2023-04-29T13:40:32;16.00;99.90
29855;DHT22;16733;48.738;9.106;2023-04-29T13:42:58;16.00;99.90
29855;DHT22;16733;48.738;9.106;2023-04-29T13:45:23;15.90;99.90
29855;DHT22;16733;48.738;9.106;2023-04-29T13:47:49;15.70;99.90
29855;DHT22;16733;48.738;9.106;2023-04-29T13:50:15;15.80;99.90
29855;DHT22;16733;48.738;9.106;2023-04-29T13:52:41;15.80;99.90
29855;DHT22;16733;48.738;9.106;2023-04-29T13:55:07;15.80;99.90
29855;DHT22;16733;48.738;9.106;2023-04-29T13:57:33;15.80;99.90
29855;DHT22;16733;48.738;9.106;2023-04-29T13:59:58;15.80;99.90
29855;DHT22;16733;48.738;9.106;2023-04-29T14:02:24;15.80;99.90
29855;DHT22;16733;48.738;9.106;2023-04-29T14:04:50;15.80;99.90
29855;DHT22;16733;48.738;9.106;2023-04-29T14:07:16;15.80;99.90
29855;DHT22;16733;48.738;9.106;2023-04-29T14:09:41;15.80;99.90
29855;DHT22;16733;48.738;9.106;2023-04-29T14:12:07;15.80;99.90
29855;DHT22;16733;48.738;9.106;2023-04-29T14:14:33;15.80;99.90
29855;DHT22;16733;48.738;9.106;2023-04-29T14:16:58;15.70;99.90
29855;DHT22;16733;48.738;9.106;2023-04-29T14:19:25;15.60;99.90
29855;DHT22;16733;48.738;9.106;2023-04-29T14:21:51;15.70;99.90
29855;DHT22;16733;48.738;9.106;2023-04-29T14:24:17;15.80;99.90
29855;DHT22;16733;48.738;9.106;2023-04-29T14:26:42;15.90;99.90
29855;DHT22;16733;48.738;9.106;2023-04-29T14:29:08;16.00;99.90
29855;DHT22;16733;48.738;9.106;2023-04-29T14:31:34;16.00;99.90
29855;DHT22;16733;48.738;9.106;2023-04-29T14:34:02;16.00;99.90
29855;DHT22;16733;48.738;9.106;2023-04-29T14:36:28;15.80;99.90
29855;DHT22;16733;48.738;9.106;2023-04-29T14:38:53;15.70;99.90
29855;DHT22;16733;48.738;9.106;2023-04-29T14:41:19;15.60;99.90
29855;DHT22;16733;48.738;9.106;2023-04-29T14:43:47;15.60;99.90
29855;DHT22;16733;48.738;9.106;2023-04-29T14:46:13;15.50;99.90
29855;DHT22;16733;48.738;9.106;2023-04-29T14:48:38;15.60;99.90
29855;DHT22;16733;48.738;9.106;2023-04-29T14:51:04;15.90;99.90
29855;DHT22;16733;48.738;9.106;2023-04-29T14:53:30;16.00;99.90
29855;DHT22;16733;48.738;9.106;2023-04-29T14:55:56;15.90;99.90
29855;DHT22;16733;48.738;9.106;2023-04-29T14:58:22;15.80;99.90
29855;DHT22;16733;48.738;9.106;2023-04-29T15:00:48;15.70;99.90
29855;DHT22;16733;48.738;9.106;2023-04-29T15:03:15;15.70;99.90
29855;DHT22;16733;48.738;9.106;2023-04-29T15:05:41;15.80;99.90
29855;DHT22;16733;48.738;9.106;2023-04-29T15:08:07;16.00;99.90
29855;DHT22;16733;48.738;9.106;2023-04-29T15:10:33;16.50;99.90
29855;DHT22;16733;48.738;9.106;2023-04-29T15:12:59;16.70;99.90
29855;DHT22;16733;48.738;9.106;2023-04-29T15:15:25;16.70;99.90
29855;DHT22;16733;48.738;9.106;2023-04-29T15:17:51;16.50;99.90
29855;DHT22;16733;48.738;9.106;2023-04-29T15:20:16;16.10;99.90
29855;DHT22;16733;48.738;9.106;2023-04-29T15:22:42;15.90;99.90
29855;DHT22;16733;48.738;9.106;2023-04-29T15:25:08;15.80;99.90
29855;DHT22;16733;48.738;9.106;2023-04-29T15:27:34;15.70;99.90
29855;DHT22;16733;48.738;9.106;2023-04-29T15:30:01;15.50;99.90
29855;DHT22;16733;48.738;9.106;2023-04-29T15:32:26;15.40;99.90
29855;DHT22;16733;48.738;9.106;2023-04-29T15:35:00;15.20;99.90
29855;DHT22;16733;48.738;9.106;2023-04-29T15:37:27;15.10;99.90
29855;DHT22;16733;48.738;9.106;2023-04-29T15:39:53;15.10;99.90
29855;DHT22;16733;48.738;9.106;2023-04-29T15:42:19;15.00;99.90
29855;DHT22;16733;48.738;9.106;2023-04-29T15:44:45;14.80;99.90
29855;DHT22;16733;48.738;9.106;2023-04-29T15:47:10;14.70;99.90
29855;DHT22;16733;48.738;9.106;2023-04-29T15:49:36;14.60;99.90
29855;DHT22;16733;48.738;9.106;2023-04-29T15:52:02;14.50;99.90